Language selection

My Weather Profile Weather Topics  | 

Atlantic - Newfoundland: Past 24 Hour Conditions

 

East Chedabucto Bay - 44488

07:00 AM ADT 04 August 2021Buoy position: 45.45N 60.95W
Disclaimer

This table is a summary of hourly weather conditions for the past 24 hours.
Please note that these observations might not always be representative of weather conditions over their associated marine area.

Date / Time
(ADT)
Wind(knots) Wave height(m) Wave period(s) Pressure(kPa) Air tempC) Water tempC)
04 August 2021
7:00 SW 8 gust 10 0.6 6.3 102.0 15 13
6:00 SW 8 gust 10 0.7 6.2 102.0 15 13
5:00 SW 10 gust 12 0.5 5.2 102.0 15 13
4:00 WSW 5 gust 12 0.6 5.4 102.0 16 13
3:00 SW 8 gust 9 0.6 5.5 102.0 16 13
2:00 W 4 gust 7 0.7 6.7 102.0 15 13
1:00 SW 12 gust 15 0.7 5.1 102.0 16 13
0:00 SW 11 gust 13 0.8 5.1 102.0 15 13
03 August 2021
23:00 SW 13 gust 16 0.9 6.1 101.9 16 14
22:00 SW 17 gust 21 0.8 5.2 101.9 16 14
21:00 SW 13 gust 15 0.7 5.9 101.9 16 14
20:00 SSW 15 gust 17 0.8 6.0 101.8 16 14
19:00 SSW 17 gust 19 0.9 6.4 101.8 17 14
18:00 SSW 16 gust 18 0.7 6.2 101.8 17 14
17:00 SSW 14 gust 17 0.9 6.2 101.7 17 14
16:00 SSW 16 gust 18 0.9 6.1 101.7 16 14
15:00 SSW 17 gust 21 0.7 6.5 101.7 16 14
14:00 SSW 15 gust 16 0.7 8.3 101.7 17 14
13:00 SSW 8 gust 9 0.6 8.2 101.8 18 14
12:00 SW 8 gust 10 0.7 8.3 101.8 17 14
11:00 W 5 gust 7 0.7 8.2 101.8 16 14
10:00 WSW 9 gust 11 0.7 6.7 101.7 15 14
9:00 WSW 12 gust 15 0.6 5.6 101.7 15 13
8:00 WSW 13 gust 16 0.6 4.7 101.6 15 13
7:00 WSW 13 gust 16 0.6 4.0 101.5 14 13

Zoom-in to make a selection

Map of Atlantic - Newfoundland marine weather areas Banquereau - 44139 East Chedabucto Bay - 44488 West Chedabucto Bay - 44489 Blanc-Sablon Airport Cap Whittle Chevery Natashquan Airport Heath Point Îles de la Madeleine Airport Miscou Island Eskasoni (First Nations) Grand Étang Ingonish Beach North Mountain St.Paul Island J.A. Douglas McCurdy Sydney Airport Charlottetown Airport East Point North Cape Argentia Bonavista Burgeo Cape Race Corner Brook Daniel's Harbour Englee Ferolle Point La Scie Port aux Basques Rocky Harbour Sagona Island St. Anthony Airport St. John's Int'l Airport St. Lawrence Stephenville Airport Twillingate Winterland Branch Hill Wreckhouse Grates Cove Pool's Island Marticot Island Long Pond Cartwright Airport Mary's Harbour
Legend:
buoy Buoy
land station Land Station

Atlantic - Newfoundland Area

Another Region

What we are doing

Date modified: